Time;durP1;ratioP1;P1;durP2;ratioP2;P2;SDS_P1;SDS_P2;PMS_P1;PMS_P2;Temp;Humidity;BMP_temperature;BMP_pressure;BME280_temperature;BME280_humidity;BME280_pressure;Samples;Min_cycle;Max_cycle;Signal;HPM_P1;HPM_P2
2021/05/21 05:12:00;;;;;;;11.75;3.17;;;;;;;13.97;86.98;99605.09;1656812;83;21190;-44
2021/05/21 05:14:28;;;;;;;4.47;2.60;;;;;;;14.00;86.12;99613.37;1656297;84;21041;-43
2021/05/21 05:16:55;;;;;;;2.90;2.30;;;;;;;14.02;84.42;99618.98;1658070;83;21664;-43
2021/05/21 05:19:22;;;;;;;3.25;2.02;;;;;;;14.02;82.99;99624.70;1657397;83;21747;-44
2021/05/21 05:21:50;;;;;;;5.10;1.60;;;;;;;14.00;81.51;99626.06;1659324;83;21139;-43
2021/05/21 05:24:19;;;;;;;3.65;2.02;;;;;;;14.00;81.70;99629.15;1655954;83;21105;-37
2021/05/21 05:26:47;;;;;;;7.10;1.77;;;;;;;14.02;81.51;99633.91;1655702;83;21633;-44
2021/05/21 05:29:17;;;;;;;1.30;1.25;;;;;;;14.01;80.58;99632.19;1662988;83;21978;-38
2021/05/21 05:31:46;;;;;;;3.72;1.60;;;;;;;13.98;79.96;99633.14;1647819;84;21360;-44
2021/05/21 05:34:31;;;;;;;2.33;1.52;;;;;;;13.96;79.53;99637.55;1656885;83;21163;-38
2021/05/21 05:38:11;;;;;;;4.90;1.50;;;;;;;13.95;79.97;99634.52;1655804;84;21143;-37
2021/05/21 05:41:39;;;;;;;2.22;1.55;;;;;;;13.95;79.29;99639.77;1657163;84;21635;-42
2021/05/21 05:51:32;;;;;;;2.72;1.32;;;;;;;13.94;78.05;99645.94;1651024;83;21657;-38
2021/05/21 05:55:05;;;;;;;1.50;1.20;;;;;;;13.94;77.97;99654.28;1655435;83;21483;-38
2021/05/21 05:58:13;;;;;;;5.58;1.47;;;;;;;13.93;77.27;99657.81;1664961;83;21185;-38
2021/05/21 06:05:39;;;;;;;1.80;1.25;;;;;;;13.89;75.52;99666.22;1663453;83;21113;-43
2021/05/21 06:16:26;;;;;;;12.88;2.15;;;;;;;13.81;75.15;99680.86;1655558;84;21106;-37
2021/05/21 06:19:48;;;;;;;3.70;1.95;;;;;;;13.81;76.00;99683.49;1657719;83;21121;-37
2021/05/21 06:22:51;;;;;;;2.95;1.90;;;;;;;13.85;76.49;99688.21;1657718;83;21125;-42
2021/05/21 06:27:14;;;;;;;6.78;2.42;;;;;;;13.89;73.35;99695.14;1657248;83;21110;-37
2021/05/21 06:29:36;;;;;;;2.62;1.10;;;;;;;13.88;73.28;99693.88;1654879;84;21130;-37
2021/05/21 06:32:03;;;;;;;;;;;;;;;13.89;72.78;99691.20;1658896;84;21090;-42
2021/05/21 06:34:36;;;;;;;7.08;1.80;;;;;;;13.93;72.54;99692.00;1656600;84;20627;-43
2021/05/21 06:37:03;;;;;;;2.42;1.77;;;;;;;13.96;73.73;99690.59;1660920;83;22058;-37
2021/05/21 06:39:30;;;;;;;11.20;3.92;;;;;;;13.98;73.03;99689.69;1663988;83;22075;-43
2021/05/21 06:41:57;;;;;;;5.78;1.72;;;;;;;14.04;73.58;99686.05;1659671;83;21191;-37
2021/05/21 06:44:24;;;;;;;1.07;0.98;;;;;;;14.08;73.78;99681.96;1661446;83;21074;-43
2021/05/21 06:47:05;;;;;;;6.40;3.72;;;;;;;14.16;71.52;99675.23;1661215;83;21101;-44
2021/05/21 06:49:42;;;;;;;5.42;1.40;;;;;;;14.21;70.06;99681.70;1627990;83;21721;-37
2021/05/21 07:04:15;;;;;;;2.25;1.35;;;;;;;14.64;69.69;99698.60;1656702;83;21157;-42
2021/05/21 07:07:01;;;;;;;3.33;1.70;;;;;;;14.70;67.93;99694.95;1660215;83;21192;-37
2021/05/21 07:14:31;;;;;;;6.25;1.15;;;;;;;14.80;68.91;99700.39;1664398;83;21089;-43
2021/05/21 07:17:18;;;;;;;2.98;1.40;;;;;;;14.90;68.76;99706.69;1657902;83;21649;-41
2021/05/21 07:19:45;;;;;;;2.67;1.30;;;;;;;15.04;69.89;99706.76;1649980;83;21414;-43
2021/05/21 07:22:12;;;;;;;2.72;1.32;;;;;;;15.12;69.08;99716.63;1665656;83;21059;-37
2021/05/21 07:24:39;;;;;;;2.00;1.10;;;;;;;15.19;68.63;99724.79;1666165;84;21042;-37
2021/05/21 07:27:07;;;;;;;1.82;0.90;;;;;;;15.23;65.25;99718.96;1663433;83;21117;-37
2021/05/21 07:29:33;;;;;;;3.00;1.05;;;;;;;15.20;65.07;99710.70;1658607;83;21082;-42
2021/05/21 07:32:01;;;;;;;1.07;0.98;;;;;;;15.24;65.12;99716.27;1659663;83;21746;-38
2021/05/21 07:34:27;;;;;;;2.77;1.20;;;;;;;15.35;64.05;99713.34;1665333;84;21078;-37
2021/05/21 07:36:56;;;;;;;0.80;0.80;;;;;;;15.44;63.61;99715.72;1684715;82;22346;-41
2021/05/21 07:39:25;;;;;;;2.58;0.80;;;;;;;15.53;62.07;99714.58;1676002;83;21563;-38
2021/05/21 07:42:15;;;;;;;3.20;1.00;;;;;;;15.58;63.54;99717.94;1679401;83;22114;-43
2021/05/21 07:49:42;;;;;;;0.60;0.60;;;;;;;15.86;61.90;99720.20;1681359;83;21143;-37
2021/05/21 07:52:21;;;;;;;1.40;1.17;;;;;;;16.16;60.85;99720.14;1686356;83;21126;-42
2021/05/21 07:58:34;;;;;;;1.07;0.90;;;;;;;16.51;57.64;99736.16;1678485;83;21150;-42
2021/05/21 08:01:32;;;;;;;2.08;0.90;;;;;;;16.66;56.79;99741.41;1679701;83;21613;-42
2021/05/21 08:03:59;;;;;;;2.00;0.60;;;;;;;16.65;57.09;99741.86;1682213;83;21079;-42
2021/05/21 08:06:26;;;;;;;4.20;0.80;;;;;;;16.58;54.80;99740.31;1677717;83;21066;-43
2021/05/21 08:08:54;;;;;;;0.50;0.50;;;;;;;16.52;56.79;99742.30;1681177;83;21095;-42
2021/05/21 08:11:27;;;;;;;1.05;0.40;;;;;;;16.53;54.27;99742.73;1678338;83;21124;-37
2021/05/21 08:13:54;;;;;;;1.77;0.60;;;;;;;16.50;53.79;99745.86;1683735;83;21083;-36
2021/05/21 08:16:21;;;;;;;4.10;0.80;;;;;;;16.48;55.33;99745.52;1678538;83;21122;-37
2021/05/21 08:18:48;;;;;;;1.20;0.65;;;;;;;16.53;54.78;99742.73;1681280;83;21147;-37
2021/05/21 08:21:15;;;;;;;1.82;0.68;;;;;;;16.60;54.02;99741.61;1680021;83;21083;-37
2021/05/21 08:23:43;;;;;;;3.52;0.72;;;;;;;16.64;54.79;99744.53;1680623;83;21728;-38
2021/05/21 08:26:11;;;;;;;1.17;0.82;;;;;;;16.70;55.12;99745.25;1678469;83;21078;-37
2021/05/21 08:28:38;;;;;;;1.67;0.60;;;;;;;16.79;55.60;99748.02;1678060;83;21106;-37
2021/05/21 08:31:05;;;;;;;6.17;0.90;;;;;;;16.89;53.87;99749.90;1681901;83;21090;-38
2021/05/21 08:33:43;;;;;;;0.75;0.70;;;;;;;16.82;52.94;99762.46;1677597;83;21102;-39
2021/05/21 08:36:58;;;;;;;1.30;0.75;;;;;;;16.70;52.99;99747.89;1674110;83;21244;-37
2021/05/21 08:43:41;;;;;;;1.25;1.10;;;;;;;16.67;54.97;99745.77;1681220;83;21142;-43
2021/05/21 08:54:36;;;;;;;;;;;;;;;16.90;54.03;99739.27;1682097;83;21661;-38
2021/05/21 08:57:42;;;;;;;1.40;1.02;;;;;;;16.93;53.32;99743.57;1681006;83;20489;-42
2021/05/21 09:05:00;;;;;;;3.30;0.98;;;;;;;17.00;55.52;99739.36;1678083;83;21693;-43
2021/05/21 09:08:05;;;;;;;0.68;0.68;;;;;;;17.12;54.79;99742.49;1681144;83;21214;-39
2021/05/21 09:10:45;;;;;;;1.42;0.93;;;;;;;17.16;55.43;99731.77;1677067;83;24887;-43
2021/05/21 09:13:42;;;;;;;4.58;1.10;;;;;;;17.33;56.25;99727.16;1682006;83;21132;-44
2021/05/21 09:17:22;;;;;;;2.92;1.25;;;;;;;17.52;55.30;99724.72;1674951;83;21054;-38
2021/05/21 09:21:07;;;;;;;3.08;1.00;;;;;;;17.72;53.97;99724.84;1673631;83;21094;-43
2021/05/21 09:24:10;;;;;;;1.87;1.07;;;;;;;17.79;54.99;99727.66;1633142;84;21121;-38
2021/05/21 09:27:13;;;;;;;2.40;1.65;;;;;;;17.67;54.02;99730.73;1604028;86;21744;-43
2021/05/21 09:30:31;;;;;;;4.67;2.58;;;;;;;17.46;55.43;99715.70;1648091;84;21157;-38
2021/05/21 09:34:02;;;;;;;1.92;1.40;;;;;;;17.37;54.01;99727.92;1648588;84;21154;-44
2021/05/21 09:40:35;;;;;;;3.77;2.25;;;;;;;17.39;54.57;99745.44;1635439;85;21086;-44
2021/05/21 09:43:55;;;;;;;3.15;1.98;;;;;;;17.41;53.47;99744.95;1649626;84;21740;-44
2021/05/21 09:47:28;;;;;;;1.70;1.60;;;;;;;17.35;53.16;99738.56;1645957;85;21103;-43
2021/05/21 09:54:28;;;;;;;4.58;2.08;;;;;;;17.32;54.59;99742.63;1627645;85;21747;-38
2021/05/21 09:57:10;;;;;;;4.45;2.30;;;;;;;17.39;53.92;99745.91;1657418;84;21122;-42
2021/05/21 10:00:09;;;;;;;8.25;2.20;;;;;;;17.46;52.53;99734.20;1680116;84;21071;-38
2021/05/21 10:02:57;;;;;;;5.22;1.70;;;;;;;17.50;52.29;99732.69;1673710;84;21147;-43
2021/05/21 10:05:53;;;;;;;10.03;1.40;;;;;;;17.57;53.58;99724.09;1670722;83;21083;-43
2021/05/21 10:09:17;;;;;;;3.22;1.35;;;;;;;17.62;52.73;99743.73;1672608;84;22082;-44
2021/05/21 10:17:01;;;;;;;4.25;1.40;;;;;;;17.59;52.79;99746.51;1678554;84;21118;-38
2021/05/21 10:19:58;;;;;;;2.75;1.57;;;;;;;17.60;52.84;99750.41;1671415;84;21043;-43
2021/05/21 10:27:08;;;;;;;;;;;;;;;17.60;51.87;99752.20;1675605;84;21497;-44
2021/05/21 10:30:44;;;;;;;3.58;1.20;;;;;;;17.66;52.05;99758.58;1667999;83;20215;-45
2021/05/21 10:34:11;;;;;;;4.25;1.20;;;;;;;17.75;51.93;99763.11;1670926;84;21225;-46
2021/05/21 10:41:12;;;;;;;3.00;1.15;;;;;;;18.05;51.39;99761.52;1675120;83;21079;-44
2021/05/21 10:44:14;;;;;;;6.53;1.42;;;;;;;18.07;51.99;99772.44;1667367;84;21695;-40
2021/05/21 10:47:19;;;;;;;;;;;;;;;18.01;51.79;99770.50;1675082;82;21158;-41
2021/05/21 10:54:44;;;;;;;1.95;1.77;;;;;;;17.84;49.36;99779.08;1672356;84;21082;-38
2021/05/21 10:57:16;;;;;;;4.40;1.85;;;;;;;17.84;50.07;99777.75;1654873;83;21457;-38
2021/05/21 10:59:57;;;;;;;4.83;1.90;;;;;;;17.91;51.23;99771.30;1678087;84;21065;-39
2021/05/21 11:02:29;;;;;;;4.60;1.70;;;;;;;18.02;51.41;99776.19;1679324;84;21529;-38
2021/05/21 11:04:56;;;;;;;4.13;1.70;;;;;;;18.25;51.61;99771.31;1670105;84;22076;-41
2021/05/21 11:07:43;;;;;;;6.67;1.60;;;;;;;18.49;49.24;99766.35;1643206;84;21682;-42
2021/05/21 11:10:36;;;;;;;2.77;1.62;;;;;;;18.64;48.12;99760.90;1668903;84;21015;-43
2021/05/21 11:13:06;;;;;;;2.67;1.42;;;;;;;18.72;49.37;99764.11;1670811;84;21490;-45
2021/05/21 11:15:53;;;;;;;1.75;0.95;;;;;;;18.76;48.08;99766.18;1657420;84;21094;-37
2021/05/21 11:18:25;;;;;;;3.90;1.60;;;;;;;18.76;47.07;99768.37;1668194;84;21174;-43
2021/05/21 11:21:12;;;;;;;5.42;1.40;;;;;;;18.74;48.21;99770.70;1670631;84;21764;-44
2021/05/21 11:23:49;;;;;;;6.65;1.20;;;;;;;18.72;48.23;99765.91;1670921;84;21122;-46
2021/05/21 11:26:24;;;;;;;2.27;1.37;;;;;;;18.73;50.04;99775.14;1658261;82;21136;-45
2021/05/21 11:28:58;;;;;;;1.35;0.95;;;;;;;18.80;47.04;99771.77;1633087;85;21776;-43
2021/05/21 11:31:32;;;;;;;4.00;1.50;;;;;;;18.83;48.38;99764.99;1635928;85;21745;-39
2021/05/21 11:34:04;;;;;;;1.90;0.95;;;;;;;18.90;48.08;99756.31;1634747;85;21185;-39
2021/05/21 11:36:33;;;;;;;;;;;;;;;18.99;48.43;99769.19;1637391;85;22152;-37
2021/05/21 11:39:00;;;;;;;2.95;0.80;;;;;;;19.02;47.70;99764.63;1634082;85;20173;-38
2021/05/21 11:41:36;;;;;;;1.72;0.90;;;;;;;19.10;46.65;99772.24;1632251;85;21175;-43
2021/05/21 11:44:09;;;;;;;3.45;0.62;;;;;;;19.12;44.13;99763.28;1632671;85;21079;-43
2021/05/21 11:46:38;;;;;;;0.93;0.68;;;;;;;19.09;45.69;99763.42;1639015;85;21119;-39
2021/05/21 11:49:11;;;;;;;1.62;0.60;;;;;;;19.11;45.18;99761.56;1635503;85;21167;-38
2021/05/21 11:51:43;;;;;;;3.10;0.78;;;;;;;19.09;44.79;99771.84;1558616;89;21177;-37
2021/05/21 11:54:14;;;;;;;2.17;0.60;;;;;;;19.05;45.46;99765.80;1604273;86;21100;-44
2021/05/21 11:56:43;;;;;;;1.92;0.60;;;;;;;19.07;45.80;99773.22;1609979;87;21386;-41
2021/05/21 11:59:18;;;;;;;1.35;0.60;;;;;;;19.08;46.26;99764.36;1604777;87;21526;-42
2021/05/21 12:01:54;;;;;;;2.35;0.78;;;;;;;19.11;46.94;99771.30;1630619;86;21430;-38
2021/05/21 12:04:23;;;;;;;2.25;1.00;;;;;;;19.13;46.43;99765.46;1630540;85;21071;-38
2021/05/21 12:06:51;;;;;;;2.47;0.90;;;;;;;19.18;43.60;99767.92;1629027;86;21171;-38
2021/05/21 12:09:20;;;;;;;3.60;0.98;;;;;;;19.24;43.20;99759.70;1599830;87;21072;-40
2021/05/21 12:11:49;;;;;;;2.83;0.93;;;;;;;19.27;44.23;99755.13;1599870;87;21091;-43
2021/05/21 12:14:22;;;;;;;2.58;0.80;;;;;;;19.28;43.25;99759.97;1642317;85;21055;-38
2021/05/21 12:16:53;;;;;;;2.83;0.98;;;;;;;19.26;44.06;99760.51;1629004;85;21119;-38
2021/05/21 12:19:22;;;;;;;2.65;0.90;;;;;;;19.31;43.58;99755.87;1631288;86;21123;-38
2021/05/21 12:21:51;;;;;;;5.40;0.90;;;;;;;19.42;42.39;99761.53;1631609;86;21168;-43
2021/05/21 12:24:21;;;;;;;2.22;0.72;;;;;;;19.42;41.54;99765.50;1632187;86;21705;-43
2021/05/21 12:26:48;;;;;;;2.08;0.60;;;;;;;19.39;44.19;99765.66;1633103;87;21959;-43
2021/05/21 12:29:16;;;;;;;0.88;0.50;;;;;;;19.42;44.61;99769.48;1612091;87;21071;-43
2021/05/21 12:31:50;;;;;;;0.50;0.45;;;;;;;19.43;43.01;99775.68;1610389;87;21108;-43
2021/05/21 12:34:18;;;;;;;3.47;0.70;;;;;;;19.40;43.62;99777.98;1618969;87;21059;-39
2021/05/21 12:36:44;;;;;;;1.15;0.65;;;;;;;19.42;42.90;99781.42;1608462;87;21096;-42
2021/05/21 12:39:11;;;;;;;0.98;0.88;;;;;;;19.47;41.14;99774.13;1611513;87;21105;-42
2021/05/21 12:41:41;;;;;;;0.95;0.55;;;;;;;19.47;40.81;99761.33;1608136;87;21473;-43
2021/05/21 12:44:13;;;;;;;0.82;0.60;;;;;;;19.43;42.35;99771.23;1616435;87;21116;-43
2021/05/21 12:46:53;;;;;;;1.00;0.90;;;;;;;19.34;41.59;99775.14;1600690;87;21146;-38
2021/05/21 12:49:30;;;;;;;0.40;0.40;;;;;;;19.22;41.78;99772.17;1610420;87;21116;-37
2021/05/21 12:52:02;;;;;;;1.22;0.50;;;;;;;19.13;42.89;99768.11;1623777;87;21615;-43
2021/05/21 12:54:33;;;;;;;0.50;0.45;;;;;;;19.11;43.76;99766.86;1609586;87;21035;-38
2021/05/21 12:57:08;;;;;;;7.42;0.50;;;;;;;19.14;42.94;99768.53;1599767;87;21150;-43
2021/05/21 12:59:45;;;;;;;0.40;0.40;;;;;;;19.16;42.57;99765.81;1601524;87;21728;-43
2021/05/21 13:02:16;;;;;;;0.70;0.50;;;;;;;19.18;42.25;99767.45;1606476;87;21162;-38
2021/05/21 13:05:05;;;;;;;0.40;0.40;;;;;;;19.23;42.09;99791.12;1609240;87;21076;-44
2021/05/21 13:07:32;;;;;;;0.93;0.50;;;;;;;19.21;41.04;99781.06;1605241;87;21097;-43
2021/05/21 13:10:02;;;;;;;0.40;0.40;;;;;;;19.23;41.97;99784.03;1595233;87;21126;-43
2021/05/21 13:12:39;;;;;;;0.40;0.40;;;;;;;19.27;42.26;99782.12;1604616;87;21192;-38
2021/05/21 13:15:21;;;;;;;0.40;0.40;;;;;;;19.28;41.05;99787.81;1603432;89;21094;-36
2021/05/21 13:17:50;;;;;;;1.15;0.70;;;;;;;19.23;41.23;99776.54;1616185;87;21538;-37
2021/05/21 13:20:35;;;;;;;0.45;0.37;;;;;;;19.17;42.37;99772.37;1604409;88;21567;-42
2021/05/21 13:23:09;;;;;;;6.05;0.60;;;;;;;19.20;43.36;99779.34;1614043;87;21230;-38
2021/05/21 13:25:34;;;;;;;0.47;0.40;;;;;;;19.27;42.55;99782.12;1605002;88;21141;-38
2021/05/21 13:28:03;;;;;;;0.50;0.50;;;;;;;19.28;41.76;99772.76;1637242;85;21186;-42
2021/05/21 13:30:30;;;;;;;5.28;0.70;;;;;;;19.27;42.45;99773.69;1631373;87;21087;-43
2021/05/21 13:33:00;;;;;;;2.62;0.70;;;;;;;19.28;43.89;99767.92;1646256;85;21677;-38
2021/05/21 13:35:30;;;;;;;0.68;0.68;;;;;;;19.29;43.19;99768.31;1633564;86;21216;-43
2021/05/21 13:37:59;;;;;;;3.12;1.32;;;;;;;19.29;43.44;99766.98;1627479;85;21190;-38
2021/05/21 13:40:26;;;;;;;0.70;0.60;;;;;;;19.27;42.34;99767.53;1626564;86;21102;-43
2021/05/21 13:42:53;;;;;;;0.85;0.60;;;;;;;19.33;43.00;99767.26;1628979;85;21119;-38
2021/05/21 13:45:20;;;;;;;0.55;0.55;;;;;;;19.54;43.87;99771.62;1629957;86;21594;-43
2021/05/21 13:47:47;;;;;;;0.60;0.60;;;;;;;19.78;44.48;99767.02;1632197;85;21202;-37
2021/05/21 13:50:15;;;;;;;0.68;0.50;;;;;;;19.99;44.11;99761.62;1629372;88;21063;-38
2021/05/21 13:52:43;;;;;;;1.10;0.62;;;;;;;20.20;43.53;99759.28;1654998;85;21162;-37
2021/05/21 13:55:10;;;;;;;2.12;0.70;;;;;;;20.23;42.09;99760.45;1633168;86;21091;-42
2021/05/21 13:57:40;;;;;;;2.15;0.50;;;;;;;20.18;40.58;99764.67;1634327;86;21122;-37
2021/05/21 14:00:08;;;;;;;0.90;0.60;;;;;;;20.14;39.96;99759.11;1629205;88;21075;-42
2021/05/21 14:02:34;;;;;;;0.57;0.50;;;;;;;20.11;41.29;99765.02;1647436;85;21119;-43
2021/05/21 14:05:01;;;;;;;0.72;0.60;;;;;;;20.17;41.46;99763.40;1622056;88;21068;-43
2021/05/21 14:07:29;;;;;;;1.20;0.68;;;;;;;20.21;41.60;99774.28;1635743;85;21255;-43
2021/05/21 14:09:58;;;;;;;0.80;0.50;;;;;;;20.17;40.74;99762.07;1653859;86;21090;-38
2021/05/21 14:12:25;;;;;;;3.35;0.90;;;;;;;20.08;40.82;99760.73;1638105;85;21149;-43
2021/05/21 14:14:53;;;;;;;1.85;0.80;;;;;;;20.06;41.80;99765.27;1614852;86;21539;-43
2021/05/21 14:17:22;;;;;;;1.77;0.85;;;;;;;20.03;41.44;99761.41;1631984;85;21075;-43
2021/05/21 14:19:49;;;;;;;0.65;0.50;;;;;;;19.99;42.62;99758.50;1630898;88;21128;-39
2021/05/21 14:22:21;;;;;;;6.28;1.00;;;;;;;20.00;42.69;99751.39;1635251;85;21098;-37
2021/05/21 14:24:46;;;;;;;1.62;0.72;;;;;;;20.04;40.18;99760.94;1628600;85;21586;-38
2021/05/21 14:27:12;;;;;;;0.65;0.65;;;;;;;19.97;40.74;99752.41;1640394;85;21121;-44
2021/05/21 14:29:40;;;;;;;2.67;0.72;;;;;;;19.87;41.00;99765.24;1638253;87;21135;-43
2021/05/21 14:32:06;;;;;;;0.82;0.70;;;;;;;19.87;40.78;99762.59;1638616;86;21143;-44
2021/05/21 14:34:33;;;;;;;4.25;0.70;;;;;;;19.98;40.63;99758.11;1633286;87;21047;-37
2021/05/21 14:37:01;;;;;;;0.60;0.60;;;;;;;20.13;40.68;99766.69;1640394;87;21174;-43
2021/05/21 14:39:28;;;;;;;1.35;0.68;;;;;;;20.29;41.00;99761.95;1636355;85;21120;-43
2021/05/21 14:41:55;;;;;;;0.82;0.60;;;;;;;20.39;41.19;99753.46;1648894;85;21140;-43
2021/05/21 14:44:22;;;;;;;4.75;0.53;;;;;;;20.33;40.34;99760.88;1641221;85;21130;-43
2021/05/21 14:46:50;;;;;;;4.33;0.90;;;;;;;20.17;40.77;99762.92;1648805;85;21059;-43
2021/05/21 14:49:17;;;;;;;1.85;0.68;;;;;;;20.03;40.58;99769.84;1643636;85;21095;-43
2021/05/21 14:51:45;;;;;;;0.90;0.80;;;;;;;19.89;41.09;99770.50;1651399;85;21563;-43
2021/05/21 14:54:12;;;;;;;3.02;0.75;;;;;;;19.88;40.94;99770.08;1641323;85;21110;-43
2021/05/21 14:56:39;;;;;;;3.85;0.90;;;;;;;19.88;40.51;99776.25;1607021;88;21664;-43
2021/05/21 14:59:07;;;;;;;0.82;0.60;;;;;;;19.82;40.12;99765.91;1649078;85;21139;-43
2021/05/21 15:01:35;;;;;;;0.57;0.42;;;;;;;19.79;40.63;99774.04;1667876;85;21081;-43
2021/05/21 15:04:02;;;;;;;1.37;0.62;;;;;;;19.77;41.38;99771.93;1639133;87;21115;-40
2021/05/21 15:06:30;;;;;;;3.10;0.90;;;;;;;19.74;41.72;99775.18;1645240;86;21095;-36
2021/05/21 15:08:59;;;;;;;0.90;0.68;;;;;;;19.71;42.56;99775.30;1636538;86;21155;-40
2021/05/21 15:11:31;;;;;;;1.37;0.68;;;;;;;19.69;42.64;99778.03;1638355;87;21786;-37
2021/05/21 15:13:59;;;;;;;2.35;0.60;;;;;;;19.64;40.67;99786.20;1640780;86;21103;-38
